Time;durP1;ratioP1;P1;durP2;ratioP2;P2;SDS_P1;SDS_P2;PMS_P1;PMS_P2;Temp;Humidity;BMP_temperature;BMP_pressure;BME280_temperature;BME280_humidity;BME280_pressure;Samples;Min_cycle;Max_cycle;Signal;HPM_P1;HPM_P2
2022/10/16 00:02:25;;;;;;;78.00;73.37;;;14.90;99.90;;;;;;5073553;28;20182;-79
2022/10/16 00:04:51;;;;;;;94.03;89.03;;;14.90;99.90;;;;;;5073783;28;20202;-79
2022/10/16 00:07:16;;;;;;;108.90;102.57;;;14.90;99.90;;;;;;5072838;28;20577;-79
2022/10/16 00:09:42;;;;;;;137.97;130.47;;;14.90;99.90;;;;;;5073612;28;20174;-79
2022/10/16 00:12:08;;;;;;;101.40;96.10;;;14.90;99.90;;;;;;5074755;28;20186;-80
2022/10/16 00:14:34;;;;;;;64.30;60.77;;;14.90;99.90;;;;;;5084710;28;20176;-77
2022/10/16 00:16:59;;;;;;;83.00;78.40;;;14.90;99.90;;;;;;5089872;28;20221;-79
2022/10/16 00:19:25;;;;;;;117.83;111.77;;;14.90;99.90;;;;;;5074563;28;20239;-80
2022/10/16 00:21:51;;;;;;;100.20;94.73;;;14.90;99.90;;;;;;5073861;28;20194;-79
2022/10/16 00:24:17;;;;;;;119.47;113.07;;;14.90;99.90;;;;;;5073256;28;20638;-78
2022/10/16 00:26:43;;;;;;;117.50;110.70;;;14.80;99.90;;;;;;5077402;28;20731;-78
2022/10/16 00:29:09;;;;;;;98.87;93.10;;;14.80;99.90;;;;;;5077317;28;20209;-80
2022/10/16 00:31:35;;;;;;;77.73;73.23;;;14.80;99.90;;;;;;5075469;28;20234;-79
2022/10/16 00:34:01;;;;;;;120.57;114.10;;;14.80;99.90;;;;;;5074429;28;20205;-80
2022/10/16 00:36:27;;;;;;;123.90;116.87;;;14.80;99.90;;;;;;5074410;28;20228;-80
2022/10/16 00:38:55;;;;;;;144.60;137.03;;;14.70;99.90;;;;;;5072257;28;20209;-78
2022/10/16 00:41:23;;;;;;;164.80;155.17;;;14.70;99.90;;;;;;5072167;28;20201;-79
2022/10/16 00:44:03;;;;;;;148.73;139.93;;;14.80;99.90;;;;;;5072550;28;20212;-79
2022/10/16 00:46:37;;;;;;;125.80;118.73;;;14.70;99.90;;;;;;5073138;28;20713;-79
2022/10/16 00:49:09;;;;;;;129.57;121.80;;;14.70;99.90;;;;;;5072935;28;20178;-79
2022/10/16 00:51:47;;;;;;;97.83;92.33;;;14.70;99.90;;;;;;5074418;28;20181;-78
2022/10/16 00:54:25;;;;;;;101.53;95.90;;;14.60;99.90;;;;;;5075795;28;20224;-78
2022/10/16 00:56:52;;;;;;;124.07;116.67;;;14.60;99.90;;;;;;5076316;28;20205;-77
2022/10/16 00:59:24;;;;;;;115.43;109.17;;;14.60;99.90;;;;;;5078927;28;20178;-78
2022/10/16 01:01:51;;;;;;;122.00;115.10;;;14.60;99.90;;;;;;5076154;28;20190;-79
2022/10/16 01:04:17;;;;;;;116.37;109.53;;;14.60;99.90;;;;;;5073453;28;20200;-80
2022/10/16 01:06:53;;;;;;;109.43;103.53;;;14.60;99.90;;;;;;5077380;28;20198;-79
2022/10/16 01:09:46;;;;;;;113.27;107.23;;;14.50;99.90;;;;;;5075753;28;20264;-78
2022/10/16 01:12:26;;;;;;;114.57;107.87;;;14.50;99.90;;;;;;5055807;28;20186;-80
2022/10/16 01:15:02;;;;;;;97.10;91.83;;;14.50;99.90;;;;;;5058197;28;20217;-79
2022/10/16 01:17:31;;;;;;;99.77;94.70;;;14.50;99.90;;;;;;5096538;28;20208;-76
2022/10/16 01:20:01;;;;;;;106.83;101.10;;;14.40;99.90;;;;;;5095421;28;20170;-80
2022/10/16 01:22:38;;;;;;;104.57;98.67;;;14.40;99.90;;;;;;5075265;28;20185;-79
2022/10/16 01:25:11;;;;;;;67.03;63.33;;;14.40;99.90;;;;;;5076434;28;20217;-80
2022/10/16 01:27:42;;;;;;;82.07;77.43;;;14.40;99.90;;;;;;5076036;28;20216;-80
2022/10/16 01:30:17;;;;;;;34.27;32.27;;;14.40;99.90;;;;;;5076563;28;20245;-80
2022/10/16 01:33:04;;;;;;;28.57;26.63;;;14.40;99.90;;;;;;5074044;28;20188;-79
2022/10/16 01:35:38;;;;;;;29.80;28.20;;;14.40;99.90;;;;;;5073193;28;20208;-79
2022/10/16 01:38:12;;;;;;;109.17;103.10;;;14.40;99.90;;;;;;5071954;28;20177;-79
2022/10/16 01:40:44;;;;;;;103.60;97.77;;;14.40;99.90;;;;;;5054176;28;20297;-78
2022/10/16 01:43:18;;;;;;;93.70;88.67;;;14.40;99.90;;;;;;5058819;28;20281;-78
2022/10/16 01:45:46;;;;;;;102.90;97.30;;;14.30;99.90;;;;;;5064882;28;20213;-79
2022/10/16 01:48:18;;;;;;;72.57;68.23;;;14.30;99.90;;;;;;5073070;28;20188;-81
2022/10/16 01:50:53;;;;;;;83.40;79.03;;;14.40;99.90;;;;;;5075816;28;20780;-78
2022/10/16 01:53:21;;;;;;;91.43;86.17;;;14.30;99.90;;;;;;5076264;28;20185;-79
2022/10/16 01:55:49;;;;;;;91.80;86.47;;;14.30;99.90;;;;;;5073009;28;20233;-79
2022/10/16 01:58:15;;;;;;;89.67;84.63;;;14.30;99.90;;;;;;5071929;28;20717;-79
2022/10/16 02:00:45;;;;;;;101.63;95.77;;;14.40;99.90;;;;;;5071735;28;20264;-79
2022/10/16 02:03:14;;;;;;;94.90;90.10;;;14.40;99.90;;;;;;5072429;28;20203;-79
2022/10/16 02:05:42;;;;;;;71.50;67.33;;;14.30;99.90;;;;;;5072575;28;20248;-79
2022/10/16 02:08:08;;;;;;;83.00;78.27;;;14.30;99.90;;;;;;5071511;28;20178;-79
2022/10/16 02:10:35;;;;;;;107.43;101.90;;;14.30;99.90;;;;;;5073762;28;20251;-79
2022/10/16 02:13:08;;;;;;;124.00;116.63;;;14.30;99.90;;;;;;5071755;28;20182;-79
2022/10/16 02:15:35;;;;;;;94.23;88.83;;;14.30;99.90;;;;;;5071413;28;20704;-79
2022/10/16 02:18:03;;;;;;;81.77;77.53;;;14.30;99.90;;;;;;5072698;28;20485;-82
2022/10/16 02:20:33;;;;;;;95.70;90.57;;;14.30;99.90;;;;;;5071841;28;20242;-78
2022/10/16 02:23:01;;;;;;;98.10;92.33;;;14.30;99.90;;;;;;5071696;28;20231;-80
2022/10/16 02:25:39;;;;;;;104.30;98.17;;;14.30;99.90;;;;;;5074291;28;20201;-78
2022/10/16 02:28:13;;;;;;;80.83;75.60;;;14.30;99.90;;;;;;5090070;28;20181;-77
2022/10/16 02:30:56;;;;;;;67.20;63.30;;;14.30;99.90;;;;;;5077200;28;20189;-78
2022/10/16 02:33:24;;;;;;;79.60;74.90;;;14.30;99.90;;;;;;5073394;28;20177;-80
2022/10/16 02:35:51;;;;;;;30.77;29.10;;;14.30;99.90;;;;;;5078745;28;20202;-75
2022/10/16 02:38:18;;;;;;;34.30;31.83;;;14.30;99.90;;;;;;5075245;28;20185;-78
2022/10/16 02:40:44;;;;;;;45.97;42.67;;;14.30;99.90;;;;;;5072430;28;20671;-82
2022/10/16 02:43:11;;;;;;;24.93;23.20;;;14.30;99.90;;;;;;5071796;28;20189;-80
2022/10/16 02:45:37;;;;;;;30.53;28.27;;;14.30;99.90;;;;;;5072402;28;20568;-81
2022/10/16 02:48:03;;;;;;;27.87;25.87;;;14.40;99.90;;;;;;5070989;28;20174;-78
2022/10/16 02:50:29;;;;;;;17.10;15.90;;;14.30;99.90;;;;;;5071499;28;20658;-80
2022/10/16 02:52:55;;;;;;;21.70;20.43;;;14.40;99.90;;;;;;5072402;28;20677;-80
2022/10/16 02:55:21;;;;;;;15.77;14.47;;;14.40;99.90;;;;;;5070777;28;20213;-79
2022/10/16 02:57:47;;;;;;;29.47;27.13;;;14.40;99.90;;;;;;5070179;28;20193;-80
2022/10/16 03:00:15;;;;;;;32.37;30.00;;;14.40;99.90;;;;;;5071141;28;20177;-80
2022/10/16 03:02:42;;;;;;;45.00;42.00;;;14.40;99.90;;;;;;5070763;28;20182;-80
2022/10/16 03:05:08;;;;;;;72.73;68.27;;;14.40;99.90;;;;;;5081969;28;20297;-78
2022/10/16 03:07:34;;;;;;;38.87;36.17;;;14.40;99.90;;;;;;5087714;28;20202;-78
2022/10/16 03:10:00;;;;;;;28.93;26.97;;;14.40;99.90;;;;;;5090707;28;20208;-78
2022/10/16 03:12:27;;;;;;;17.70;16.57;;;14.40;99.90;;;;;;5081452;28;20185;-81
2022/10/16 03:14:53;;;;;;;15.27;14.37;;;14.40;99.90;;;;;;5076664;28;20224;-81
2022/10/16 03:17:18;;;;;;;50.83;47.60;;;14.40;99.90;;;;;;5091508;22;20255;-83
2022/10/16 03:19:44;;;;;;;99.23;93.73;;;14.30;99.90;;;;;;5038180;28;20261;-83
2022/10/16 03:22:10;;;;;;;113.57;106.67;;;14.30;99.90;;;;;;5036413;28;20182;-83
2022/10/16 03:24:36;;;;;;;109.93;103.83;;;14.30;99.90;;;;;;5035220;28;20220;-82
2022/10/16 03:27:01;;;;;;;106.07;100.20;;;14.30;99.90;;;;;;5045805;28;20225;-82
2022/10/16 03:29:29;;;;;;;105.87;99.97;;;14.30;99.90;;;;;;5046419;28;20194;-83
2022/10/16 03:31:55;;;;;;;80.17;75.83;;;14.20;99.90;;;;;;5040286;28;20186;-83
2022/10/16 03:34:21;;;;;;;84.60;80.27;;;14.20;99.90;;;;;;5040043;28;20206;-83
2022/10/16 03:36:47;;;;;;;79.17;74.17;;;14.20;99.90;;;;;;5039359;28;20186;-83
2022/10/16 03:39:13;;;;;;;72.43;68.07;;;14.20;99.90;;;;;;5055100;28;20190;-83
2022/10/16 03:41:39;;;;;;;74.20;70.10;;;14.20;99.90;;;;;;5058426;28;20179;-82
2022/10/16 03:44:05;;;;;;;75.77;71.77;;;14.20;99.90;;;;;;5043255;28;20237;-82
2022/10/16 03:46:31;;;;;;;75.97;72.03;;;14.20;99.90;;;;;;5039170;28;20182;-83
2022/10/16 03:48:57;;;;;;;73.73;69.43;;;14.10;99.90;;;;;;5039092;28;20199;-82
2022/10/16 03:51:23;;;;;;;104.53;98.60;;;14.20;99.90;;;;;;5038862;28;20183;-83
2022/10/16 03:53:48;;;;;;;77.67;72.27;;;14.10;99.90;;;;;;5039746;28;20171;-82
2022/10/16 03:56:14;;;;;;;86.03;81.60;;;14.10;99.90;;;;;;5038142;28;20241;-83
2022/10/16 03:58:40;;;;;;;79.60;75.27;;;14.10;99.90;;;;;;5037522;28;20202;-83
2022/10/16 04:01:06;;;;;;;86.17;81.23;;;14.10;99.90;;;;;;5038011;28;20218;-83
2022/10/16 04:03:31;;;;;;;82.60;78.23;;;14.10;99.90;;;;;;5038117;28;20183;-83
2022/10/16 04:05:57;;;;;;;82.97;78.33;;;14.00;99.90;;;;;;5038676;28;20301;-83
2022/10/16 04:08:23;;;;;;;80.27;75.67;;;14.00;99.90;;;;;;5036766;28;20203;-83
2022/10/16 04:10:49;;;;;;;73.50;69.60;;;14.00;99.90;;;;;;5038564;28;20206;-83
2022/10/16 04:13:15;;;;;;;80.50;76.10;;;13.90;99.90;;;;;;5035274;28;20179;-83
2022/10/16 04:15:41;;;;;;;78.27;73.90;;;13.90;99.90;;;;;;5036384;28;20183;-83
2022/10/16 04:18:07;;;;;;;63.63;59.60;;;13.90;99.90;;;;;;5037647;28;20215;-83
2022/10/16 04:20:33;;;;;;;69.73;65.83;;;13.80;99.90;;;;;;5039453;28;20202;-83
2022/10/16 04:22:59;;;;;;;54.90;51.90;;;13.80;99.90;;;;;;5037872;28;20183;-83
2022/10/16 04:25:25;;;;;;;56.90;53.53;;;13.80;99.90;;;;;;5038339;28;20209;-83
2022/10/16 04:27:53;;;;;;;20.50;19.00;;;13.80;99.90;;;;;;5036078;28;20702;-83
2022/10/16 04:30:19;;;;;;;62.97;57.93;;;13.80;99.90;;;;;;5034014;28;20175;-83
2022/10/16 04:32:49;;;;;;;22.87;21.47;;;13.80;99.90;;;;;;5034161;28;20175;-82
2022/10/16 04:35:15;;;;;;;12.97;12.00;;;13.80;99.90;;;;;;5034083;28;20237;-83
2022/10/16 04:37:41;;;;;;;16.10;14.87;;;13.80;99.90;;;;;;5032359;28;20312;-82
2022/10/16 04:40:07;;;;;;;18.87;17.57;;;13.80;99.90;;;;;;5032481;28;20214;-82
2022/10/16 04:42:33;;;;;;;14.70;13.70;;;13.80;99.90;;;;;;5040136;28;20199;-81
2022/10/16 04:44:59;;;;;;;16.13;14.60;;;13.80;99.90;;;;;;5051975;28;20226;-82
2022/10/16 04:47:24;;;;;;;18.17;16.73;;;13.80;99.90;;;;;;5033709;28;20195;-81
2022/10/16 04:49:50;;;;;;;19.53;17.43;;;13.80;99.90;;;;;;5046840;28;20170;-82
2022/10/16 04:52:17;;;;;;;15.30;13.27;;;13.80;99.90;;;;;;5056428;28;20183;-82
2022/10/16 04:54:44;;;;;;;38.07;29.90;;;13.80;99.90;;;;;;5050021;28;20261;-82
2022/10/16 04:57:11;;;;;;;23.27;21.47;;;13.80;99.90;;;;;;5045789;28;20221;-83
2022/10/16 04:59:37;;;;;;;22.20;20.30;;;13.80;99.90;;;;;;5039075;28;20193;-82
2022/10/16 05:02:03;;;;;;;13.20;12.33;;;13.70;99.90;;;;;;5025578;28;20255;-82
2022/10/16 05:04:28;;;;;;;18.10;16.37;;;13.70;99.90;;;;;;5038158;28;20222;-82
2022/10/16 05:06:54;;;;;;;35.97;33.33;;;13.70;99.90;;;;;;5038085;28;20183;-82
2022/10/16 05:09:20;;;;;;;21.17;16.80;;;13.70;99.90;;;;;;5054538;28;20214;-81
2022/10/16 05:11:46;;;;;;;67.20;18.07;;;13.60;99.90;;;;;;5056993;28;20167;-81
2022/10/16 05:14:12;;;;;;;36.77;11.43;;;13.60;99.90;;;;;;5038512;28;20193;-81
2022/10/16 05:16:38;;;;;;;33.77;31.90;;;13.60;99.90;;;;;;5039250;28;20201;-82
2022/10/16 05:19:04;;;;;;;92.20;86.87;;;13.70;99.90;;;;;;5039095;28;20210;-81
2022/10/16 05:21:29;;;;;;;151.30;141.97;;;13.70;99.90;;;;;;5039449;28;20261;-82
2022/10/16 05:23:55;;;;;;;51.33;46.53;;;13.70;99.90;;;;;;5037949;28;20668;-81
2022/10/16 05:26:21;;;;;;;24.17;11.40;;;13.70;99.90;;;;;;5037308;28;20221;-82
2022/10/16 05:28:47;;;;;;;20.53;17.73;;;13.70;99.90;;;;;;5037766;28;20290;-82
2022/10/16 05:31:13;;;;;;;16.50;11.03;;;13.70;99.90;;;;;;5037273;28;20222;-82
2022/10/16 05:33:38;;;;;;;35.73;32.73;;;13.70;99.90;;;;;;5037759;28;20190;-82
2022/10/16 05:36:07;;;;;;;58.03;52.93;;;13.80;99.90;;;;;;5034182;28;20692;-81
2022/10/16 05:38:34;;;;;;;74.80;64.97;;;13.80;99.90;;;;;;5032244;28;20296;-82
2022/10/16 05:41:00;;;;;;;86.40;80.03;;;13.80;99.90;;;;;;5034614;28;20175;-81
2022/10/16 05:43:27;;;;;;;94.57;86.50;;;13.70;99.90;;;;;;5031727;28;20555;-81
2022/10/16 05:45:55;;;;;;;66.33;59.60;;;13.70;99.90;;;;;;5031465;28;20459;-82
2022/10/16 05:48:20;;;;;;;99.20;92.23;;;13.70;99.90;;;;;;5033564;28;20278;-82
2022/10/16 05:50:46;;;;;;;95.43;89.77;;;13.70;99.90;;;;;;5034632;28;20186;-82
2022/10/16 05:53:12;;;;;;;67.20;62.23;;;13.70;99.90;;;;;;5032700;28;20183;-72
2022/10/16 05:55:38;;;;;;;51.77;47.10;;;13.70;99.90;;;;;;5030820;28;20237;-72
2022/10/16 05:58:03;;;;;;;73.90;69.43;;;13.60;99.90;;;;;;5030269;28;20206;-73
2022/10/16 06:00:29;;;;;;;57.23;53.53;;;13.60;99.90;;;;;;5031089;28;20264;-74
2022/10/16 06:02:55;;;;;;;58.30;55.13;;;13.60;99.90;;;;;;5029832;28;20686;-72
2022/10/16 06:05:20;;;;;;;43.73;41.33;;;13.60;99.90;;;;;;5029512;28;20201;-73
2022/10/16 06:07:46;;;;;;;20.83;19.53;;;13.70;99.90;;;;;;5028914;28;20239;-73
2022/10/16 06:10:12;;;;;;;21.50;20.07;;;13.70;99.90;;;;;;5030584;28;20175;-73
2022/10/16 06:12:38;;;;;;;32.40;30.50;;;13.80;99.90;;;;;;5030563;28;20187;-73
2022/10/16 06:15:04;;;;;;;29.60;27.73;;;13.80;99.90;;;;;;5024851;28;20194;-73
2022/10/16 06:17:30;;;;;;;35.17;32.93;;;13.90;99.90;;;;;;5029382;28;20232;-73
2022/10/16 06:19:55;;;;;;;48.37;45.67;;;13.90;99.90;;;;;;5030555;28;20222;-73
2022/10/16 06:22:21;;;;;;;101.23;95.50;;;13.90;99.90;;;;;;5030009;28;20189;-73
2022/10/16 06:24:47;;;;;;;184.37;174.03;;;14.00;99.90;;;;;;5030676;28;20210;-73
2022/10/16 06:27:13;;;;;;;172.03;162.20;;;13.90;99.90;;;;;;5030372;28;20206;-73
2022/10/16 06:29:39;;;;;;;209.20;197.83;;;14.00;99.90;;;;;;5028378;28;20179;-74
2022/10/16 06:32:04;;;;;;;219.27;207.80;;;14.00;99.90;;;;;;5030470;28;20668;-73
2022/10/16 06:34:32;;;;;;;240.50;227.33;;;14.10;99.90;;;;;;5029010;28;20709;-73
2022/10/16 06:36:57;;;;;;;238.20;224.20;;;14.20;99.90;;;;;;5029549;28;20261;-75
2022/10/16 06:39:23;;;;;;;220.53;208.37;;;14.20;99.90;;;;;;5030016;28;20210;-73
2022/10/16 06:41:49;;;;;;;170.23;158.63;;;14.20;99.90;;;;;;5029768;28;20220;-73
2022/10/16 06:44:15;;;;;;;17.27;15.60;;;14.30;99.90;;;;;;5028602;28;20555;-73
2022/10/16 06:46:40;;;;;;;80.07;75.47;;;14.30;99.90;;;;;;5031865;28;20240;-72
2022/10/16 06:49:06;;;;;;;124.20;117.27;;;14.40;99.90;;;;;;5033745;28;20179;-72
2022/10/16 06:51:34;;;;;;;143.07;135.53;;;14.50;99.90;;;;;;5033115;28;20178;-72
2022/10/16 06:54:00;;;;;;;139.77;132.00;;;14.60;99.90;;;;;;5034047;28;20228;-72
2022/10/16 06:56:27;;;;;;;160.23;151.70;;;14.80;99.90;;;;;;5033851;28;20739;-72
2022/10/16 06:58:54;;;;;;;195.87;184.93;;;14.90;99.90;;;;;;5033502;28;20203;-72
2022/10/16 07:01:23;;;;;;;211.47;200.40;;;15.00;99.90;;;;;;5033874;28;20186;-72
2022/10/16 07:03:49;;;;;;;107.33;98.87;;;15.10;99.90;;;;;;5033721;28;20902;-73
2022/10/16 07:06:18;;;;;;;76.73;72.50;;;15.30;99.90;;;;;;5032034;28;20214;-72
2022/10/16 07:08:45;;;;;;;28.93;27.33;;;15.60;99.90;;;;;;5033389;28;20210;-73
2022/10/16 07:11:14;;;;;;;27.80;26.07;;;15.80;99.90;;;;;;5033613;28;20630;-73
2022/10/16 07:13:41;;;;;;;303.77;286.93;;;16.00;99.90;;;;;;5032262;28;20194;-73
2022/10/16 07:16:19;;;;;;;152.87;143.87;;;16.00;99.90;;;;;;5034006;28;20183;-74
2022/10/16 07:18:48;;;;;;;27.53;25.80;;;16.10;99.90;;;;;;5032590;28;20228;-72
2022/10/16 07:21:21;;;;;;;23.23;21.50;;;16.00;99.90;;;;;;5033202;28;20262;-72
2022/10/16 07:23:54;;;;;;;21.67;20.40;;;15.90;99.90;;;;;;5033526;28;20182;-72
2022/10/16 07:26:20;;;;;;;22.57;21.33;;;15.80;99.90;;;;;;5032140;28;20632;-72
2022/10/16 07:28:46;;;;;;;22.27;20.80;;;15.80;99.90;;;;;;5031842;28;20298;-72
2022/10/16 07:31:14;;;;;;;23.43;22.03;;;15.80;99.90;;;;;;5033055;28;20293;-72
2022/10/16 07:33:45;;;;;;;24.00;22.30;;;15.80;99.90;;;;;;5033278;28;20221;-72
2022/10/16 07:36:11;;;;;;;16.40;15.00;;;15.80;99.90;;;;;;5031812;28;20278;-75
2022/10/16 07:38:38;;;;;;;11.53;10.43;;;15.90;99.90;;;;;;5033227;28;20215;-73
2022/10/16 07:41:10;;;;;;;12.50;11.73;;;16.00;99.90;;;;;;5032323;28;20195;-73
2022/10/16 07:43:36;;;;;;;26.63;25.30;;;16.00;99.90;;;;;;5032805;28;20183;-72
2022/10/16 07:46:02;;;;;;;21.60;20.30;;;16.10;99.90;;;;;;5031431;28;20289;-72
2022/10/16 07:48:31;;;;;;;15.90;14.77;;;16.10;99.90;;;;;;5032036;28;20700;-72
2022/10/16 07:51:02;;;;;;;9.77;9.27;;;16.00;99.90;;;;;;5032231;28;20171;-73
2022/10/16 07:53:28;;;;;;;8.60;8.10;;;15.90;99.90;;;;;;5031901;28;20183;-73
2022/10/16 07:56:02;;;;;;;8.93;8.30;;;15.90;99.90;;;;;;5032524;28;20179;-73
2022/10/16 07:58:29;;;;;;;8.23;7.60;;;15.90;99.90;;;;;;5030896;28;20210;-75
2022/10/16 08:00:55;;;;;;;9.53;9.03;;;15.90;99.90;;;;;;5032577;28;20187;-73
2022/10/16 08:03:22;;;;;;;9.67;8.80;;;15.90;99.90;;;;;;5033242;28;20187;-73
2022/10/16 08:05:47;;;;;;;11.90;11.00;;;15.90;99.90;;;;;;5032494;28;20221;-73
2022/10/16 08:08:15;;;;;;;12.57;11.53;;;16.00;99.90;;;;;;5032082;28;20741;-71
2022/10/16 08:10:41;;;;;;;11.10;10.30;;;16.10;99.90;;;;;;5032519;28;20211;-71
2022/10/16 08:13:07;;;;;;;12.23;11.37;;;16.20;99.90;;;;;;5032334;28;20183;-73
2022/10/16 08:15:33;;;;;;;37.47;35.30;;;16.30;99.90;;;;;;5032949;28;20257;-73
2022/10/16 08:18:01;;;;;;;56.67;53.60;;;16.40;99.90;;;;;;5031680;28;20221;-71
2022/10/16 08:20:28;;;;;;;37.47;35.20;;;16.50;99.90;;;;;;5032386;28;20221;-72
2022/10/16 08:22:54;;;;;;;30.83;29.03;;;16.50;99.90;;;;;;5032492;28;20298;-72
2022/10/16 08:25:20;;;;;;;36.87;34.50;;;16.60;99.90;;;;;;5033008;28;20353;-73
2022/10/16 08:27:46;;;;;;;44.20;41.40;;;16.60;99.90;;;;;;5033589;28;20814;-73
2022/10/16 08:30:13;;;;;;;52.63;49.63;;;16.80;99.90;;;;;;5032732;28;20183;-72
2022/10/16 08:32:39;;;;;;;99.63;94.30;;;16.90;99.90;;;;;;5031863;28;20190;-72
2022/10/16 08:35:05;;;;;;;72.93;69.03;;;17.10;99.90;;;;;;5032204;28;20233;-72
2022/10/16 08:37:32;;;;;;;61.97;58.70;;;17.30;99.90;;;;;;5032889;28;20211;-73
2022/10/16 08:39:58;;;;;;;56.00;52.67;;;17.50;99.90;;;;;;5033768;28;20187;-73
2022/10/16 08:43:00;;;;;;;58.33;55.40;;;17.60;99.90;;;;;;5032403;28;20241;-73
2022/10/16 08:45:46;;;;;;;188.20;178.13;;;17.70;99.90;;;;;;5032109;28;20212;-73
2022/10/16 08:48:25;;;;;;;110.47;104.63;;;18.00;99.90;;;;;;5020921;28;20719;-73
2022/10/16 08:50:52;;;;;;;34.07;32.17;;;18.70;99.90;;;;;;5031955;28;20178;-71
2022/10/16 08:53:33;;;;;;;45.00;42.50;;;19.00;99.90;;;;;;5031885;28;20590;-71
2022/10/16 08:55:59;;;;;;;39.53;36.90;;;19.20;99.90;;;;;;5032027;28;20656;-71
2022/10/16 08:58:30;;;;;;;32.07;30.13;;;19.30;99.90;;;;;;5030864;28;20290;-72
2022/10/16 09:00:58;;;;;;;25.13;23.70;;;19.30;99.90;;;;;;5032070;28;20201;-72
2022/10/16 09:03:31;;;;;;;23.03;21.53;;;19.30;99.90;;;;;;5032058;28;20274;-72
2022/10/16 09:06:05;;;;;;;17.13;15.80;;;19.30;99.90;;;;;;5031668;28;20310;-73
2022/10/16 09:08:52;;;;;;;9.57;8.77;;;19.40;99.90;;;;;;5030952;28;20297;-73
2022/10/16 09:11:27;;;;;;;19.80;18.70;;;19.50;99.90;;;;;;5031829;28;20309;-73
2022/10/16 09:14:18;;;;;;;22.03;20.77;;;19.50;99.90;;;;;;5031040;28;20194;-73
2022/10/16 09:16:55;;;;;;;28.90;27.37;;;19.50;99.90;;;;;;5012293;28;20175;-73
2022/10/16 09:19:30;;;;;;;20.07;18.90;;;19.30;99.90;;;;;;5052212;22;20620;-74
2022/10/16 09:21:59;;;;;;;17.67;16.53;;;19.10;99.90;;;;;;5030922;28;20269;-74
2022/10/16 09:24:26;;;;;;;32.03;29.97;;;19.00;99.90;;;;;;5030949;28;20183;-74
2022/10/16 09:26:52;;;;;;;31.20;29.57;;;19.20;99.90;;;;;;5024703;28;20183;-73
2022/10/16 09:29:21;;;;;;;35.57;33.63;;;19.40;99.90;;;;;;5031304;28;20210;-72
2022/10/16 09:31:47;;;;;;;14.60;13.63;;;19.70;99.90;;;;;;5031552;28;20182;-73
2022/10/16 09:34:39;;;;;;;31.67;29.77;;;19.90;99.90;;;;;;5031330;28;20290;-73
2022/10/16 09:37:11;;;;;;;28.33;26.63;;;19.90;99.90;;;;;;4995189;28;20230;-72
2022/10/16 09:39:50;;;;;;;24.57;22.60;;;20.10;99.90;;;;;;5029385;28;20175;-73
2022/10/16 09:42:22;;;;;;;25.97;24.27;;;20.40;99.90;;;;;;5030997;28;20528;-73
2022/10/16 09:44:53;;;;;;;74.47;70.40;;;20.80;99.90;;;;;;5026163;28;20751;-73
2022/10/16 09:47:24;;;;;;;99.13;93.83;;;21.40;99.90;;;;;;5030603;28;20268;-73
2022/10/16 09:49:57;;;;;;;97.03;92.23;;;21.40;99.90;;;;;;5031269;28;20179;-73
2022/10/16 09:52:24;;;;;;;68.03;64.50;;;21.30;99.90;;;;;;5030760;28;20545;-72
2022/10/16 09:55:00;;;;;;;33.70;31.70;;;21.40;99.90;;;;;;5026575;28;20179;-73
2022/10/16 09:57:27;;;;;;;32.27;30.53;;;21.40;99.90;;;;;;5027766;28;20205;-73
2022/10/16 09:59:55;;;;;;;35.37;33.33;;;21.60;99.90;;;;;;5030842;28;20213;-73
2022/10/16 10:02:31;;;;;;;17.42;16.27;;;21.90;99.90;;;;;;5031304;28;20727;-72
2022/10/16 10:04:57;;;;;;;23.05;21.63;;;22.40;99.90;;;;;;5030003;28;20293;-73
2022/10/16 10:07:35;;;;;;;29.27;27.63;;;22.60;99.90;;;;;;5030214;28;20179;-74
2022/10/16 10:10:04;;;;;;;9.32;8.60;;;23.00;99.90;;;;;;5030801;28;20194;-74
2022/10/16 10:12:32;;;;;;;7.68;6.13;;;24.30;99.90;;;;;;5030867;28;20175;-75
2022/10/16 10:15:12;;;;;;;14.93;13.98;;;25.00;99.90;;;;;;5030755;28;20190;-74
2022/10/16 10:17:52;;;;;;;12.48;11.38;;;25.70;99.90;;;;;;5031325;28;20563;-74
2022/10/16 10:20:34;;;;;;;12.27;11.10;;;25.80;99.90;;;;;;5031659;28;20187;-74
2022/10/16 10:23:01;;;;;;;13.27;12.52;;;26.00;99.90;;;;;;5030180;28;20183;-74
2022/10/16 10:25:36;;;;;;;14.75;13.68;;;26.00;99.90;;;;;;5030392;28;20214;-74
2022/10/16 10:28:17;;;;;;;17.80;16.70;;;26.40;99.90;;;;;;5012527;28;20284;-73
2022/10/16 10:31:03;;;;;;;15.73;14.50;;;27.30;99.90;;;;;;5030596;28;20183;-73
2022/10/16 10:33:52;;;;;;;24.17;22.92;;;28.20;99.90;;;;;;5013148;28;20640;-74
2022/10/16 10:36:37;;;;;;;17.85;16.48;;;27.40;99.90;;;;;;5030161;28;20186;-72
2022/10/16 10:39:17;;;;;;;24.50;23.00;;;27.00;99.90;;;;;;5010158;28;20203;-74
2022/10/16 10:41:58;;;;;;;21.38;20.17;;;27.30;99.90;;;;;;4993235;28;20183;-74
2022/10/16 10:44:33;;;;;;;6.78;6.47;;;27.80;99.90;;;;;;5010586;28;20609;-74
2022/10/16 10:47:30;;;;;;;4.65;4.20;;;28.00;99.90;;;;;;5008917;28;20186;-72
2022/10/16 10:50:24;;;;;;;4.07;3.88;;;28.70;99.90;;;;;;5027097;28;20186;-72
2022/10/16 10:52:58;;;;;;;8.43;8.10;;;28.80;99.90;;;;;;5030661;28;20248;-76
2022/10/16 10:55:50;;;;;;;18.83;17.85;;;29.10;99.90;;;;;;5030563;28;20663;-76
2022/10/16 10:59:02;;;;;;;15.57;14.50;;;29.80;99.90;;;;;;5010254;28;20772;-77
2022/10/16 11:01:49;;;;;;;15.43;14.35;;;30.40;99.90;;;;;;5032745;28;20182;-77
2022/10/16 11:04:47;;;;;;;9.02;8.40;;;30.50;99.90;;;;;;5012648;28;20238;-77
2022/10/16 11:07:18;;;;;;;3.33;3.03;;;31.80;97.60;;;;;;5009320;28;20184;-75
2022/10/16 11:09:49;;;;;;;5.05;4.47;;;31.70;96.20;;;;;;5010264;28;20329;-74
2022/10/16 11:12:39;;;;;;;8.52;4.60;;;31.10;96.60;;;;;;5010784;28;20660;-74
2022/10/16 11:15:11;;;;;;;4.80;3.67;;;31.30;97.10;;;;;;5010895;28;20184;-75
2022/10/16 11:17:44;;;;;;;4.22;3.97;;;31.50;96.00;;;;;;5011992;28;20237;-72
2022/10/16 11:20:26;;;;;;;4.25;4.03;;;31.90;94.60;;;;;;5012627;28;20190;-76
2022/10/16 11:22:56;;;;;;;5.65;5.20;;;30.80;97.20;;;;;;5012741;28;20186;-77
2022/10/16 11:25:26;;;;;;;14.48;13.63;;;30.80;97.50;;;;;;5030212;28;20213;-77
2022/10/16 11:28:02;;;;;;;7.07;6.70;;;31.00;96.70;;;;;;5029654;28;20199;-77
2022/10/16 11:30:33;;;;;;;8.52;4.43;;;31.30;97.40;;;;;;5032581;28;21111;-76
2022/10/16 11:33:08;;;;;;;8.52;4.10;;;31.60;95.80;;;;;;5031359;28;20546;-77
2022/10/16 11:35:53;;;;;;;4.40;3.33;;;31.30;95.30;;;;;;5033950;28;20632;-77
2022/10/16 11:38:28;;;;;;;7.07;3.70;;;31.50;95.70;;;;;;5016511;28;20577;-77
2022/10/16 11:40:59;;;;;;;4.55;3.10;;;31.20;94.80;;;;;;5033302;28;20167;-77
2022/10/16 11:43:38;;;;;;;5.22;4.15;;;31.00;94.40;;;;;;5033327;28;20186;-76
2022/10/16 11:46:17;;;;;;;4.97;4.78;;;31.10;94.00;;;;;;5017380;28;20221;-77
2022/10/16 11:48:50;;;;;;;20.83;19.85;;;32.10;91.80;;;;;;5036582;28;20286;-77
2022/10/16 11:51:34;;;;;;;11.55;10.68;;;31.40;90.90;;;;;;5019982;28;20275;-77
2022/10/16 11:54:28;;;;;;;4.00;3.75;;;30.20;92.50;;;;;;5014180;28;20626;-77
2022/10/16 11:56:59;;;;;;;6.57;3.45;;;30.00;93.30;;;;;;5025585;28;20183;-77
2022/10/16 11:59:59;;;;;;;8.60;8.00;;;31.10;92.60;;;;;;5015966;28;20210;-77
2022/10/16 12:02:55;;;;;;;9.73;9.00;;;32.00;92.30;;;;;;5029337;28;20285;-77
2022/10/16 12:05:24;;;;;;;17.77;16.90;;;32.70;88.00;;;;;;5033949;28;20307;-77
2022/10/16 12:08:14;;;;;;;18.08;17.17;;;33.30;86.80;;;;;;5034672;28;20209;-78
2022/10/16 12:10:46;;;;;;;39.53;37.38;;;34.30;86.20;;;;;;5030265;28;20179;-77
2022/10/16 12:13:28;;;;;;;44.40;42.00;;;34.00;84.30;;;;;;5033843;28;20266;-77
2022/10/16 12:16:15;;;;;;;50.55;48.00;;;33.90;84.00;;;;;;5033076;28;20182;-77
2022/10/16 12:18:44;;;;;;;49.28;46.72;;;33.50;83.90;;;;;;5032515;28;20276;-76
2022/10/16 12:21:14;;;;;;;38.42;36.42;;;33.30;85.20;;;;;;5015075;28;20179;-76
2022/10/16 12:23:50;;;;;;;55.85;52.97;;;32.50;86.80;;;;;;5032553;28;20183;-76
2022/10/16 12:26:25;;;;;;;55.15;52.60;;;32.00;85.00;;;;;;5032675;28;20246;-76
2022/10/16 12:28:51;;;;;;;48.53;46.17;;;32.70;82.60;;;;;;5034294;28;20221;-76
2022/10/16 12:31:18;;;;;;;59.95;56.80;;;33.50;84.60;;;;;;5042500;28;20225;-79
2022/10/16 12:33:58;;;;;;;36.85;34.67;;;34.20;80.60;;;;;;4999487;28;20269;-79
2022/10/16 12:36:32;;;;;;;38.75;36.80;;;34.80;77.10;;;;;;5022036;28;20255;-79
2022/10/16 12:38:59;;;;;;;18.00;17.08;;;35.50;75.60;;;;;;5036310;28;20301;-80
2022/10/16 12:41:28;;;;;;;26.10;24.83;;;34.70;73.20;;;;;;5019447;28;20183;-80
2022/10/16 12:43:55;;;;;;;27.42;25.90;;;34.50;74.20;;;;;;5016762;28;20193;-80